createdAt,value
2022-08-09T00:00:04.222Z,50.27
2022-08-09T00:00:58.406Z,51.53
2022-08-09T00:01:57.497Z,52.15
2022-08-09T00:02:57.351Z,52.45
2022-08-09T00:04:10.182Z,52.48
2022-08-09T00:05:00.799Z,52.55
2022-08-09T00:06:17.933Z,52.52
2022-08-09T00:06:58.325Z,52.44
2022-08-09T00:07:57.285Z,52.38
2022-08-09T00:08:57.724Z,52.25
2022-08-09T00:09:57.327Z,52.13
2022-08-09T00:10:58.075Z,52.06
2022-08-09T00:12:03.062Z,51.92
2022-08-09T00:12:58.218Z,51.90
2022-08-09T00:13:57.246Z,51.88
2022-08-09T00:14:57.183Z,51.79
2022-08-09T00:15:58.864Z,51.78
2022-08-09T00:16:58.187Z,51.76
2022-08-09T00:18:05.078Z,51.74
2022-08-09T00:18:58.149Z,51.64
2022-08-09T00:19:57.189Z,51.37
2022-08-09T00:20:57.118Z,51.58
2022-08-09T00:21:57.245Z,50.03
2022-08-09T00:22:57.107Z,51.29
2022-08-09T00:24:00.003Z,51.59
2022-08-09T00:24:57.129Z,51.67
2022-08-09T00:25:57.048Z,51.62
2022-08-09T00:26:57.303Z,51.67
2022-08-09T00:27:57.018Z,51.69
2022-08-09T00:28:57.106Z,51.46
2022-08-09T00:30:23.648Z,51.61
2022-08-09T00:30:57.989Z,50.28
2022-08-09T00:32:00.807Z,51.04
2022-08-09T00:32:56.958Z,51.55
2022-08-09T00:33:57.039Z,51.70
2022-08-09T00:34:56.928Z,51.73
2022-08-09T00:35:56.996Z,51.74
2022-08-09T00:36:56.901Z,51.65
2022-08-09T00:37:56.910Z,49.65
2022-08-09T00:38:56.888Z,50.07
2022-08-09T00:40:14.160Z,51.51
2022-08-09T00:40:58.120Z,51.67
2022-08-09T00:44:10.517Z,51.73
2022-08-09T00:44:15.690Z,51.38
2022-08-09T00:44:16.792Z,51.82
2022-08-09T00:44:57.841Z,51.20
2022-08-09T00:45:56.867Z,51.63
2022-08-09T00:47:04.865Z,51.64
2022-08-09T00:47:57.762Z,51.57
2022-08-09T00:48:56.788Z,51.48
2022-08-09T00:49:56.918Z,51.46
2022-08-09T00:50:56.852Z,51.34
2022-08-09T00:51:56.712Z,51.25
2022-08-09T00:52:56.712Z,51.22
2022-08-09T00:53:56.691Z,51.16
2022-08-09T00:54:56.724Z,51.03
2022-08-09T00:56:04.842Z,50.98
2022-08-09T00:56:57.662Z,50.68
2022-08-09T00:57:59.374Z,50.76
2022-08-09T00:58:56.613Z,50.77
2022-08-09T00:59:56.662Z,50.80
2022-08-09T01:00:59.040Z,50.06
2022-08-09T01:01:56.691Z,50.67
2022-08-09T01:02:56.583Z,50.73
2022-08-09T01:03:56.585Z,50.91
2022-08-09T01:04:56.533Z,50.98
2022-08-09T01:05:56.597Z,50.99
2022-08-09T01:06:56.504Z,51.08
2022-08-09T01:07:59.984Z,50.94
2022-08-09T01:08:56.523Z,50.99
2022-08-09T01:09:57.553Z,50.98
2022-08-09T01:10:56.453Z,50.94
2022-08-09T01:11:56.541Z,50.56
2022-08-09T01:12:56.435Z,50.74
2022-08-09T01:14:00.076Z,51.01
2022-08-09T01:14:57.424Z,50.93
2022-08-09T01:15:56.472Z,50.99
2022-08-09T01:16:56.374Z,51.11
2022-08-09T01:17:57.780Z,51.10
2022-08-09T01:19:02.445Z,51.10
2022-08-09T01:20:02.431Z,50.59
2022-08-09T01:20:57.358Z,51.05
2022-08-09T01:21:56.415Z,51.05
2022-08-09T01:22:56.298Z,51.04
2022-08-09T01:24:01.903Z,50.72
2022-08-09T01:24:57.280Z,50.90
2022-08-09T01:25:56.344Z,49.69
2022-08-09T01:26:56.273Z,49.69
2022-08-09T01:27:57.929Z,50.69
2022-08-09T01:28:56.240Z,48.76
2022-08-09T01:29:56.791Z,49.88
2022-08-09T01:30:59.076Z,50.70
2022-08-09T01:32:29.845Z,51.06
2022-08-09T01:32:57.191Z,51.03
2022-08-09T01:33:56.197Z,51.23
2022-08-09T01:34:56.138Z,51.25
2022-08-09T01:35:56.206Z,50.93
2022-08-09T01:36:56.109Z,51.24
2022-08-09T01:38:09.654Z,50.25
2022-08-09T01:38:57.121Z,50.47
2022-08-09T01:39:56.131Z,50.97
2022-08-09T01:41:04.851Z,50.74
2022-08-09T01:42:01.431Z,51.06
2022-08-09T01:42:57.062Z,51.06
2022-08-09T01:43:56.117Z,51.06
2022-08-09T01:44:56.011Z,50.37
2022-08-09T01:45:57.961Z,50.83
2022-08-09T01:46:55.979Z,48.33
2022-08-09T01:47:55.994Z,50.20
2022-08-09T01:48:55.959Z,50.29
2022-08-09T01:49:57.080Z,48.29
2022-08-09T01:50:55.932Z,50.17
2022-08-09T01:51:56.990Z,50.58
2022-08-09T01:52:55.909Z,51.03
2022-08-09T01:53:57.998Z,51.19
2022-08-09T01:54:55.872Z,51.05
2022-08-09T01:55:56.541Z,51.36
2022-08-09T01:56:55.841Z,51.48
2022-08-09T01:57:55.872Z,51.61
2022-08-09T01:58:55.820Z,50.81
2022-08-09T01:59:59.952Z,51.43
2022-08-09T02:00:55.809Z,50.78
2022-08-09T02:02:00.248Z,51.19
2022-08-09T02:02:56.772Z,51.37
2022-08-09T02:03:55.873Z,51.28
2022-08-09T02:04:55.738Z,51.21
2022-08-09T02:06:04.094Z,51.08
2022-08-09T02:06:58.594Z,50.94
2022-08-09T02:08:40.715Z,50.80
2022-08-09T02:08:59.037Z,50.68
2022-08-09T02:09:59.766Z,50.57
2022-08-09T02:10:56.670Z,50.46
2022-08-09T02:11:57.810Z,50.01
2022-08-09T02:12:55.643Z,50.34
2022-08-09T02:14:26.212Z,50.03
2022-08-09T02:14:56.604Z,49.45
2022-08-09T02:15:56.703Z,50.03
2022-08-09T02:17:15.166Z,49.90
2022-08-09T02:18:01.630Z,50.34
2022-08-09T02:18:56.617Z,50.27
2022-08-09T02:19:55.534Z,50.59
2022-08-09T02:20:55.625Z,50.55
2022-08-09T02:21:55.923Z,50.47
2022-08-09T02:22:55.562Z,48.84
2022-08-09T02:23:56.552Z,50.28
2022-08-09T02:24:56.627Z,48.89
2022-08-09T02:25:55.823Z,48.45
2022-08-09T02:26:55.635Z,49.98
2022-08-09T02:28:00.377Z,50.27
2022-08-09T02:28:56.455Z,50.55
2022-08-09T02:29:56.562Z,50.69
2022-08-09T02:30:56.386Z,50.73
2022-08-09T02:31:56.496Z,50.68
2022-08-09T02:32:55.399Z,50.54
2022-08-09T02:34:06.675Z,50.34
2022-08-09T02:34:57.739Z,50.31
2022-08-09T02:36:16.424Z,49.92
2022-08-09T02:36:55.317Z,50.15
2022-08-09T02:37:55.378Z,50.10
2022-08-09T02:38:55.288Z,50.04
2022-08-09T02:40:01.709Z,49.91
2022-08-09T02:40:56.382Z,49.96
2022-08-09T02:41:56.410Z,49.87
2022-08-09T02:42:55.225Z,49.88
2022-08-09T02:43:55.665Z,48.10
2022-08-09T02:44:55.369Z,49.53
2022-08-09T02:45:55.208Z,49.67
2022-08-09T02:46:55.306Z,49.62
2022-08-09T02:47:59.355Z,49.12
2022-08-09T02:48:55.147Z,49.64
2022-08-09T02:50:01.310Z,49.90
2022-08-09T02:50:56.610Z,48.28
2022-08-09T02:51:55.239Z,49.80
2022-08-09T02:52:55.536Z,49.71
2022-08-09T02:55:20.175Z,49.90
2022-08-09T02:56:05.596Z,49.90
2022-08-09T02:57:13.701Z,50.01
2022-08-09T02:58:36.876Z,49.39
2022-08-09T02:59:05.410Z,49.80
2022-08-09T03:00:21.165Z,49.86
2022-08-09T03:01:06.325Z,49.85
2022-08-09T03:02:11.867Z,49.88
2022-08-09T03:03:04.389Z,49.78
2022-08-09T03:04:17.131Z,49.76
2022-08-09T03:05:05.690Z,49.72
2022-08-09T03:06:05.417Z,49.68
2022-08-09T03:07:12.171Z,49.57
2022-08-09T03:08:05.301Z,49.57
2022-08-09T03:09:05.418Z,49.54
2022-08-09T03:10:04.270Z,49.29
2022-08-09T03:11:05.359Z,49.40
2022-08-09T03:12:10.874Z,48.19
2022-08-09T03:13:08.631Z,49.00
2022-08-09T03:14:04.216Z,49.00
2022-08-09T03:15:04.304Z,49.61
2022-08-09T03:16:06.914Z,49.70
2022-08-09T03:17:05.587Z,49.77
2022-08-09T03:18:10.696Z,49.75
2022-08-09T03:19:05.816Z,49.64
2022-08-09T03:20:11.464Z,49.62
2022-08-09T03:21:05.123Z,49.53
2022-08-09T03:22:05.172Z,49.38
2022-08-09T03:23:14.584Z,49.33
2022-08-09T03:24:05.326Z,49.31
2022-08-09T03:25:21.478Z,49.23
2022-08-09T03:26:05.431Z,49.13
2022-08-09T03:27:04.032Z,49.02
2022-08-09T03:29:22.674Z,48.83
2022-08-09T03:30:29.482Z,48.82
2022-08-09T03:31:21.301Z,48.87
2022-08-09T03:33:27.005Z,47.26
2022-08-09T03:34:25.692Z,47.26
2022-08-09T03:35:44.278Z,48.74
2022-08-09T03:36:27.397Z,47.27
2022-08-09T03:37:55.958Z,48.37
2022-08-09T03:38:28.702Z,48.15
2022-08-09T03:39:28.640Z,48.93
2022-08-09T03:40:25.635Z,49.19
2022-08-09T03:41:29.989Z,49.22
2022-08-09T03:42:26.319Z,48.80
2022-08-09T03:43:25.574Z,49.05
2022-08-09T03:44:27.794Z,49.09
2022-08-09T03:46:04.113Z,49.49
2022-08-09T03:46:29.163Z,49.44
2022-08-09T03:47:24.522Z,49.38
2022-08-09T03:48:51.756Z,49.33
2022-08-09T03:49:25.499Z,49.26
2022-08-09T03:50:31.735Z,49.17
2022-08-09T03:51:44.011Z,48.88
2022-08-09T03:52:25.467Z,49.03
2022-08-09T03:53:24.445Z,48.96
2022-08-09T03:54:29.111Z,49.03
2022-08-09T03:55:24.415Z,49.01
2022-08-09T03:56:24.560Z,48.95
2022-08-09T03:57:24.386Z,48.60
2022-08-09T03:58:25.466Z,48.61
2022-08-09T03:59:27.274Z,48.71
2022-08-09T04:00:25.420Z,48.82
2022-08-09T04:01:24.950Z,46.64
2022-08-09T04:02:26.561Z,48.34
2022-08-09T04:03:35.432Z,48.95
2022-08-09T04:04:25.308Z,49.18
2022-08-09T04:05:27.320Z,49.20
2022-08-09T04:06:24.437Z,49.01
2022-08-09T04:07:24.248Z,49.22
2022-08-09T04:08:29.068Z,48.94
2022-08-09T04:09:47.846Z,49.27
2022-08-09T04:10:29.048Z,49.26
2022-08-09T04:11:25.208Z,49.22
2022-08-09T04:12:30.038Z,49.16
2022-08-09T04:13:44.743Z,49.04
2022-08-09T04:14:54.140Z,49.06
2022-08-09T04:15:51.949Z,49.00
2022-08-09T04:16:25.140Z,48.87
2022-08-09T04:17:24.279Z,48.82
2022-08-09T04:18:25.001Z,48.79
2022-08-09T04:19:30.401Z,48.51
2022-08-09T04:20:25.092Z,47.31
2022-08-09T04:21:24.200Z,48.41
2022-08-09T04:22:24.122Z,47.11
2022-08-09T04:23:24.321Z,48.45
2022-08-09T04:24:24.159Z,49.06
2022-08-09T04:25:24.018Z,47.16
2022-08-09T04:26:24.088Z,48.77
2022-08-09T04:27:24.011Z,49.20
2022-08-09T04:28:33.103Z,49.31
2022-08-09T04:29:24.961Z,49.60
2022-08-09T04:30:26.140Z,50.14
2022-08-09T04:31:26.438Z,49.39
2022-08-09T04:32:31.651Z,49.88
2022-08-09T04:33:28.694Z,50.62
2022-08-09T04:34:31.810Z,50.67
2022-08-09T04:35:24.892Z,50.58
2022-08-09T04:36:24.258Z,50.42
2022-08-09T04:37:24.041Z,50.05
2022-08-09T04:38:24.973Z,50.06
2022-08-09T04:39:23.863Z,50.03
2022-08-09T04:40:36.063Z,48.27
2022-08-09T04:41:32.942Z,49.67
2022-08-09T04:42:24.794Z,48.64
2022-08-09T04:43:25.249Z,49.18
2022-08-09T04:44:25.903Z,49.85
2022-08-09T04:45:23.774Z,49.89
2022-08-09T04:46:57.089Z,48.96
2022-08-09T04:47:24.935Z,50.34
2022-08-09T04:48:33.443Z,50.25
2022-08-09T04:49:40.401Z,50.44
2022-08-09T04:50:24.704Z,50.34
2022-08-09T04:51:24.805Z,50.59
2022-08-09T04:52:27.017Z,50.77
2022-08-09T04:53:23.645Z,51.03
2022-08-09T04:54:24.704Z,51.09
2022-08-09T04:55:23.626Z,51.44
2022-08-09T04:56:26.104Z,51.71
2022-08-09T04:57:24.417Z,51.74
2022-08-09T04:58:23.688Z,51.17
2022-08-09T04:59:23.566Z,50.60
2022-08-09T05:00:44.666Z,50.07
2022-08-09T05:01:23.555Z,50.66
2022-08-09T05:02:23.616Z,51.76
2022-08-09T05:03:41.227Z,51.90
2022-08-09T05:04:31.204Z,52.44
2022-08-09T05:05:32.402Z,52.86
2022-08-09T05:06:27.504Z,52.01
2022-08-09T05:07:23.585Z,51.86
2022-08-09T05:08:23.449Z,52.47
2022-08-09T05:09:23.428Z,53.76
2022-08-09T05:10:24.597Z,54.26
2022-08-09T05:11:23.430Z,54.96
2022-08-09T05:12:24.404Z,55.55
2022-08-09T05:13:23.567Z,56.72
2022-08-09T05:14:23.366Z,57.52
2022-08-09T05:15:38.597Z,58.89
2022-08-09T05:16:31.452Z,59.75
2022-08-09T05:18:39.293Z,60.42
2022-08-09T05:18:39.732Z,60.77
2022-08-09T05:19:25.719Z,61.49
2022-08-09T05:20:23.293Z,61.11
2022-08-09T05:21:29.838Z,60.86
2022-08-09T05:22:33.535Z,61.15
2022-08-09T05:23:54.378Z,61.76
2022-08-09T05:24:24.366Z,62.71
2022-08-09T05:25:23.239Z,63.80
2022-08-09T05:26:36.145Z,64.75
2022-08-09T05:27:24.218Z,65.54
2022-08-09T05:28:23.289Z,65.94
2022-08-09T05:29:24.499Z,66.82
2022-08-09T05:30:24.159Z,67.44
2022-08-09T05:31:37.094Z,67.72
2022-08-09T05:32:24.214Z,68.36
2022-08-09T05:33:26.421Z,67.98
2022-08-09T05:34:26.037Z,68.20
2022-08-09T05:35:24.098Z,68.40
2022-08-09T05:36:23.150Z,68.64
2022-08-09T05:37:24.122Z,68.70
2022-08-09T05:38:25.479Z,68.81
2022-08-09T05:39:28.854Z,69.84
2022-08-09T05:40:24.029Z,69.69
2022-08-09T05:41:23.090Z,68.72
2022-08-09T05:42:27.956Z,69.71
2022-08-09T05:43:23.981Z,70.78
2022-08-09T05:44:29.044Z,69.79
2022-08-09T05:45:24.853Z,69.62
2022-08-09T05:46:23.011Z,69.09
2022-08-09T05:47:23.236Z,68.46
2022-08-09T05:48:31.841Z,68.04
2022-08-09T05:50:24.489Z,67.62
2022-08-09T05:50:43.924Z,68.35
2022-08-09T05:51:42.394Z,67.09
2022-08-09T05:52:24.813Z,67.27
2022-08-09T05:53:31.642Z,67.79
2022-08-09T05:54:23.844Z,67.29
2022-08-09T05:55:24.110Z,67.97
2022-08-09T05:56:25.810Z,66.23
2022-08-09T05:57:25.153Z,65.67
2022-08-09T05:58:23.864Z,66.72
2022-08-09T05:59:22.772Z,64.53
2022-08-09T06:00:23.426Z,64.53
2022-08-09T06:01:22.755Z,64.26
2022-08-09T06:02:22.911Z,64.20
2022-08-09T06:03:22.772Z,63.92
2022-08-09T06:04:23.319Z,64.35
2022-08-09T06:05:50.028Z,63.09
2022-08-09T06:06:23.704Z,63.21
2022-08-09T06:07:22.663Z,63.50
2022-08-09T06:08:24.368Z,63.87
2022-08-09T06:09:23.043Z,63.99
2022-08-09T06:10:23.625Z,63.66
2022-08-09T06:11:40.523Z,63.61
2022-08-09T06:12:26.352Z,62.96
2022-08-09T06:13:22.612Z,63.73
2022-08-09T06:14:23.635Z,63.71
2022-08-09T06:15:22.653Z,64.03
2022-08-09T06:16:22.556Z,63.81
2022-08-09T06:17:22.723Z,61.96
2022-08-09T06:18:25.110Z,62.01
2022-08-09T06:19:22.616Z,61.63
2022-08-09T06:20:22.524Z,59.98
2022-08-09T06:21:22.601Z,60.26
2022-08-09T06:22:28.945Z,60.42
2022-08-09T06:23:23.463Z,61.02
2022-08-09T06:24:23.464Z,60.67
2022-08-09T06:25:22.576Z,59.16
2022-08-09T06:26:22.742Z,58.09
2022-08-09T06:27:23.406Z,58.89
2022-08-09T06:28:22.566Z,57.71
2022-08-09T06:29:23.374Z,57.29
2022-08-09T06:30:22.555Z,58.07
2022-08-09T06:31:31.301Z,58.13
2022-08-09T06:32:59.134Z,56.43
2022-08-09T06:33:39.939Z,56.66
2022-08-09T06:34:26.040Z,55.99
2022-08-09T06:35:22.315Z,55.19
2022-08-09T06:36:27.286Z,54.51
2022-08-09T06:37:23.274Z,53.02
2022-08-09T06:38:31.974Z,52.48
2022-08-09T06:39:23.286Z,53.20
2022-08-09T06:40:24.456Z,53.60
2022-08-09T06:41:22.348Z,52.92
2022-08-09T06:42:25.008Z,53.58
2022-08-09T06:43:23.187Z,54.23
2022-08-09T06:44:23.738Z,55.15
2022-08-09T06:46:05.548Z,56.17
2022-08-09T06:46:39.836Z,56.55
2022-08-09T06:47:23.709Z,56.35
2022-08-09T06:48:26.184Z,54.80
2022-08-09T06:49:44.593Z,54.26
2022-08-09T06:50:23.107Z,54.50
2022-08-09T06:51:22.088Z,55.08
2022-08-09T06:52:25.107Z,54.98
2022-08-09T06:53:22.068Z,55.72
2022-08-09T06:54:22.179Z,56.02
2022-08-09T06:55:23.315Z,56.90
2022-08-09T06:56:30.648Z,57.34
2022-08-09T06:57:25.799Z,57.45
2022-08-09T07:00:46.445Z,57.46
2022-08-09T07:00:50.757Z,55.29
2022-08-09T07:00:51.956Z,57.03
2022-08-09T07:01:24.119Z,54.58
2022-08-09T07:02:22.009Z,54.21
2022-08-09T07:03:26.899Z,54.61
2022-08-09T07:04:22.918Z,54.57
2022-08-09T07:05:22.058Z,54.63
2022-08-09T07:06:21.885Z,54.24
2022-08-09T07:07:59.124Z,53.85
2022-08-09T07:08:22.872Z,53.89
2022-08-09T07:09:55.012Z,53.73
2022-08-09T07:10:31.361Z,54.66
2022-08-09T07:11:25.202Z,54.64
2022-08-09T07:12:21.969Z,55.11
2022-08-09T07:13:28.172Z,55.82
2022-08-09T07:14:26.695Z,57.18
2022-08-09T07:15:53.724Z,57.06
2022-08-09T07:16:42.296Z,57.44
2022-08-09T07:17:22.740Z,58.12
2022-08-09T07:18:21.859Z,58.49
2022-08-09T07:19:23.621Z,58.88
2022-08-09T07:20:22.814Z,57.91
2022-08-09T07:21:21.741Z,58.31
2022-08-09T07:22:34.357Z,58.53
2022-08-09T07:23:22.779Z,57.67
2022-08-09T07:24:21.763Z,58.12
2022-08-09T07:25:22.644Z,57.48
2022-08-09T07:26:21.692Z,57.40
2022-08-09T07:27:26.407Z,57.51
2022-08-09T07:28:28.124Z,57.04
2022-08-09T07:29:22.609Z,55.36
2022-08-09T07:30:24.636Z,55.57
2022-08-09T07:31:21.570Z,54.66
2022-08-09T07:32:22.992Z,54.74
2022-08-09T07:33:23.214Z,54.59
2022-08-09T07:34:21.653Z,54.13
2022-08-09T07:35:21.503Z,53.72
2022-08-09T07:36:22.053Z,53.51
2022-08-09T07:37:22.027Z,53.51
2022-08-09T07:38:21.614Z,53.33
2022-08-09T07:39:40.269Z,52.93
2022-08-09T07:40:26.935Z,52.55
2022-08-09T07:41:22.425Z,52.41
2022-08-09T07:42:21.586Z,52.15
2022-08-09T07:43:22.444Z,51.04
2022-08-09T07:44:24.002Z,51.35
2022-08-09T07:45:23.663Z,51.73
2022-08-09T07:46:22.371Z,50.83
2022-08-09T07:47:23.209Z,50.24
2022-08-09T07:48:25.502Z,51.04
2022-08-09T07:49:22.374Z,50.72
2022-08-09T07:50:21.536Z,50.57
2022-08-09T07:52:04.277Z,50.49
2022-08-09T07:52:22.285Z,50.26
2022-08-09T07:53:36.553Z,49.63
2022-08-09T07:54:27.895Z,49.64
2022-08-09T07:55:22.256Z,49.72
2022-08-09T07:56:26.815Z,50.09
2022-08-09T07:57:22.217Z,50.17
2022-08-09T07:58:26.140Z,50.12
2022-08-09T07:59:34.663Z,50.04
2022-08-09T08:00:35.728Z,49.83
2022-08-09T08:01:22.217Z,49.66
2022-08-09T08:02:22.229Z,49.36
2022-08-09T08:03:21.305Z,49.20
2022-08-09T08:04:31.289Z,49.45
2022-08-09T08:05:22.096Z,49.11
2022-08-09T08:06:21.439Z,49.38
2022-08-09T08:08:44.385Z,49.06
2022-08-09T08:09:00.564Z,49.41
2022-08-09T08:09:35.533Z,49.35
2022-08-09T08:10:22.037Z,49.08
2022-08-09T08:12:23.941Z,49.31
2022-08-09T08:12:28.236Z,49.22
2022-08-09T08:13:22.040Z,49.25
2022-08-09T08:15:30.530Z,49.20
2022-08-09T08:16:32.450Z,49.20
2022-08-09T08:17:52.067Z,49.77
2022-08-09T08:18:31.320Z,49.97
2022-08-09T08:19:31.406Z,50.12
2022-08-09T08:20:33.034Z,50.04
2022-08-09T08:21:30.296Z,49.84
2022-08-09T08:22:30.522Z,50.05
2022-08-09T08:23:30.298Z,49.76
2022-08-09T08:24:34.189Z,49.72
2022-08-09T08:25:44.185Z,49.63
2022-08-09T08:26:54.881Z,49.45
2022-08-09T08:27:40.530Z,49.61
2022-08-09T08:28:34.931Z,49.48
2022-08-09T08:29:39.189Z,49.39
2022-08-09T08:30:31.204Z,49.31
2022-08-09T08:32:02.467Z,49.42
2022-08-09T08:32:33.450Z,49.27
2022-08-09T08:33:49.512Z,48.94
2022-08-09T08:34:31.180Z,49.42
2022-08-09T08:35:37.074Z,49.49
2022-08-09T08:36:31.206Z,49.32
2022-08-09T08:37:41.931Z,49.35
2022-08-09T08:38:31.398Z,49.33
2022-08-09T08:39:38.187Z,48.83
2022-08-09T08:40:31.023Z,49.53
2022-08-09T08:41:50.591Z,49.31
2022-08-09T08:42:31.984Z,49.24
2022-08-09T08:43:30.045Z,49.23
2022-08-09T08:44:30.173Z,49.13
2022-08-09T08:45:37.339Z,49.00
2022-08-09T08:46:33.456Z,48.89
2022-08-09T08:47:31.003Z,48.72
2022-08-09T08:48:31.185Z,48.77
2022-08-09T08:49:38.381Z,48.71
2022-08-09T08:50:30.962Z,48.51
2022-08-09T08:51:41.606Z,48.37
2022-08-09T08:53:37.040Z,48.64
2022-08-09T08:54:30.947Z,49.24
2022-08-09T08:55:29.814Z,49.28
2022-08-09T08:56:29.834Z,49.31
2022-08-09T08:57:29.783Z,48.58
2022-08-09T08:58:30.795Z,49.14
2022-08-09T08:59:44.766Z,49.27
2022-08-09T09:00:34.402Z,48.38
2022-08-09T09:01:35.399Z,49.25
2022-08-09T09:02:31.946Z,48.78
2022-08-09T09:03:33.251Z,49.27
2022-08-09T09:04:31.390Z,49.43
2022-08-09T09:05:57.550Z,49.51
2022-08-09T09:06:30.665Z,49.44
2022-08-09T09:07:29.695Z,49.33
2022-08-09T09:08:31.873Z,49.20
2022-08-09T09:09:58.668Z,48.87
2022-08-09T09:10:30.637Z,48.81
2022-08-09T09:11:29.949Z,49.28
2022-08-09T09:12:29.586Z,49.90
2022-08-09T09:13:56.526Z,49.99
2022-08-09T09:14:30.571Z,51.74
2022-08-09T09:15:29.656Z,50.40
2022-08-09T09:16:30.557Z,50.28
2022-08-09T09:17:48.689Z,50.26
2022-08-09T09:18:30.538Z,50.22
2022-08-09T09:19:40.900Z,49.91
2022-08-09T09:20:30.480Z,49.74
2022-08-09T09:21:29.487Z,49.57
2022-08-09T09:22:30.525Z,49.54
2022-08-09T09:23:37.754Z,49.82
2022-08-09T09:24:30.456Z,49.61
2022-08-09T09:26:03.525Z,48.83
2022-08-09T09:26:30.454Z,50.09
2022-08-09T09:28:05.669Z,50.19
2022-08-09T09:28:39.135Z,51.26
2022-08-09T09:29:40.982Z,50.64
2022-08-09T09:30:40.527Z,50.87
2022-08-09T09:32:06.581Z,50.78
2022-08-09T09:32:34.729Z,50.62
2022-08-09T09:33:30.426Z,50.51
2022-08-09T09:34:30.410Z,50.07
2022-08-09T09:35:29.290Z,49.00
2022-08-09T09:36:29.290Z,49.19
2022-08-09T09:37:31.961Z,49.61
2022-08-09T09:38:37.042Z,50.28
2022-08-09T09:39:54.876Z,50.27
2022-08-09T09:40:30.292Z,50.15
2022-08-09T09:41:33.125Z,49.96
2022-08-09T09:42:31.516Z,49.79
2022-08-09T09:43:29.202Z,49.68
2022-08-09T09:44:31.833Z,49.53
2022-08-09T09:45:29.704Z,49.47
2022-08-09T09:46:53.492Z,48.74
2022-08-09T09:47:29.123Z,49.01
2022-08-09T09:48:29.180Z,49.50
2022-08-09T09:49:55.994Z,49.42
2022-08-09T09:50:30.084Z,49.53
2022-08-09T09:51:38.380Z,50.28
2022-08-09T09:52:36.707Z,50.53
2022-08-09T09:53:43.646Z,50.86
2022-08-09T09:54:30.035Z,50.58
2022-08-09T09:55:33.060Z,50.35
2022-08-09T09:56:31.589Z,49.80
2022-08-09T09:58:04.023Z,50.32
2022-08-09T09:58:30.009Z,50.41
2022-08-09T09:59:29.379Z,51.51
2022-08-09T10:00:29.960Z,48.74
2022-08-09T10:01:37.548Z,49.41
2022-08-09T10:02:29.942Z,50.21
2022-08-09T10:03:30.127Z,51.37
2022-08-09T10:04:30.760Z,50.77
2022-08-09T10:06:03.924Z,50.62
2022-08-09T10:06:32.246Z,50.45
2022-08-09T10:07:29.974Z,50.34
2022-08-09T10:08:28.916Z,50.18
2022-08-09T10:09:28.876Z,49.95
2022-08-09T10:10:29.978Z,50.07
2022-08-09T10:11:59.443Z,49.90
2022-08-09T10:12:31.417Z,49.84
2022-08-09T10:13:44.985Z,49.96
2022-08-09T10:14:32.961Z,50.70
2022-08-09T10:16:08.904Z,50.47
2022-08-09T10:16:56.644Z,50.29
2022-08-09T10:17:50.631Z,50.17
2022-08-09T10:18:30.898Z,50.35
2022-08-09T10:19:28.734Z,51.08
2022-08-09T10:20:33.021Z,50.51
2022-08-09T10:21:29.777Z,51.33
2022-08-09T10:22:32.688Z,50.88
2022-08-09T10:23:30.111Z,50.34
2022-08-09T10:24:35.567Z,50.18
2022-08-09T10:25:34.837Z,50.27
2022-08-09T10:26:29.682Z,51.14
2022-08-09T10:27:34.689Z,51.15
2022-08-09T10:28:30.630Z,50.58
2022-08-09T10:30:23.560Z,50.19
2022-08-09T10:32:42.204Z,50.78
2022-08-09T10:34:08.704Z,51.12
2022-08-09T10:34:33.956Z,50.46
2022-08-09T10:35:29.705Z,50.84
2022-08-09T10:36:29.754Z,50.62
2022-08-09T10:37:28.504Z,50.42
2022-08-09T10:38:54.476Z,50.81
2022-08-09T10:39:29.622Z,50.31
2022-08-09T10:40:33.227Z,50.21
2022-08-09T10:41:29.465Z,50.61
2022-08-09T10:42:29.616Z,49.67
2022-08-09T10:43:36.194Z,49.90
2022-08-09T10:44:29.443Z,50.82
2022-08-09T10:45:31.722Z,50.18
2022-08-09T10:46:28.448Z,50.86
2022-08-09T10:48:20.215Z,49.43
2022-08-09T10:48:30.431Z,48.92
2022-08-09T10:49:50.899Z,48.71
2022-08-09T10:50:31.455Z,49.17
2022-08-09T10:51:29.570Z,49.61
2022-08-09T10:52:28.297Z,49.43
2022-08-09T10:53:31.972Z,50.27
2022-08-09T10:54:28.264Z,49.86
2022-08-09T10:55:28.333Z,49.66
2022-08-09T10:56:28.233Z,50.20
2022-08-09T10:57:28.244Z,51.65
2022-08-09T10:58:28.204Z,49.76
2022-08-09T10:59:31.235Z,50.17
2022-08-09T11:00:28.213Z,49.49
2022-08-09T11:03:13.388Z,50.16
2022-08-09T11:03:15.241Z,49.30
2022-08-09T11:03:53.747Z,50.12
2022-08-09T11:04:31.368Z,49.68
2022-08-09T11:05:30.547Z,50.12
2022-08-09T11:06:28.117Z,49.73
2022-08-09T11:07:56.827Z,48.31
2022-08-09T11:08:30.039Z,48.35
2022-08-09T11:09:28.067Z,48.14
2022-08-09T11:10:29.377Z,48.92
2022-08-09T11:11:28.100Z,48.39
2022-08-09T11:12:29.976Z,49.11
2022-08-09T11:13:50.995Z,49.09
2022-08-09T11:14:32.014Z,48.56
2022-08-09T11:15:33.644Z,48.83
2022-08-09T11:16:33.500Z,49.76
2022-08-09T11:17:31.172Z,48.52
2022-08-09T11:18:29.048Z,47.94
2022-08-09T11:20:12.208Z,48.21
2022-08-09T11:20:29.078Z,47.94
2022-08-09T11:21:27.997Z,48.74
2022-08-09T11:22:29.061Z,47.18
2022-08-09T11:23:30.114Z,47.46
2022-08-09T11:24:27.858Z,48.24
2022-08-09T11:25:47.124Z,47.85
2022-08-09T11:26:28.988Z,48.04
2022-08-09T11:28:02.940Z,48.08
2022-08-09T11:28:33.954Z,47.86
2022-08-09T11:30:04.303Z,47.37
2022-08-09T11:30:32.381Z,47.70
2022-08-09T11:31:33.959Z,47.74
2022-08-09T11:32:28.750Z,48.60
2022-08-09T11:33:28.021Z,48.00
2022-08-09T11:34:27.763Z,47.65
2022-08-09T11:35:35.247Z,47.97
2022-08-09T11:36:35.510Z,48.34
2022-08-09T11:37:40.595Z,47.80
2022-08-09T11:38:33.278Z,47.85
2022-08-09T11:39:38.186Z,47.89
2022-08-09T11:40:28.662Z,47.96
2022-08-09T11:41:27.753Z,47.65
2022-08-09T11:42:28.633Z,47.85
2022-08-09T11:43:32.103Z,47.73
2022-08-09T11:44:27.593Z,45.24
2022-08-09T11:45:42.119Z,47.20
2022-08-09T11:46:33.623Z,47.52
2022-08-09T11:47:28.570Z,47.53
2022-08-09T11:48:28.542Z,47.72
2022-08-09T11:49:28.645Z,47.21
2022-08-09T11:50:53.114Z,45.64
2022-08-09T11:53:00.869Z,44.40
2022-08-09T11:53:03.529Z,44.59
2022-08-09T11:53:59.037Z,44.57
2022-08-09T11:54:33.366Z,45.00
2022-08-09T11:55:35.137Z,44.84
2022-08-09T11:56:34.377Z,44.54
2022-08-09T11:58:00.165Z,45.66
2022-08-09T11:58:32.750Z,46.64
2022-08-09T11:59:30.422Z,45.49
2022-08-09T12:00:28.370Z,46.10
2022-08-09T12:02:18.086Z,46.17
2022-08-09T12:02:37.222Z,46.53
2022-08-09T12:03:55.665Z,47.67
2022-08-09T12:04:32.227Z,45.07
2022-08-09T12:05:28.348Z,42.94
2022-08-09T12:06:32.705Z,42.99
2022-08-09T12:07:28.282Z,43.02
2022-08-09T12:08:28.302Z,44.66
2022-08-09T12:09:27.359Z,46.13
2022-08-09T12:10:39.590Z,42.49
2022-08-09T12:11:28.228Z,41.54
2022-08-09T12:12:38.408Z,42.58
2022-08-09T12:14:07.133Z,42.65
2022-08-09T12:14:28.702Z,41.69
2022-08-09T12:15:48.866Z,42.78
2022-08-09T12:16:38.462Z,44.95
2022-08-09T12:17:42.949Z,45.31
2022-08-09T12:18:30.165Z,42.67
2022-08-09T12:19:27.209Z,41.06
2022-08-09T12:20:27.250Z,41.24
2022-08-09T12:21:51.385Z,40.73
2022-08-09T12:22:27.114Z,40.71
2022-08-09T12:23:56.553Z,43.20
2022-08-09T12:24:28.219Z,43.97
2022-08-09T12:25:36.606Z,40.91
2022-08-09T12:26:28.060Z,39.99
2022-08-09T12:29:10.893Z,40.16
2022-08-09T12:29:14.241Z,39.86
2022-08-09T12:29:32.885Z,40.65
2022-08-09T12:30:36.912Z,40.16
2022-08-09T12:31:57.991Z,39.75
2022-08-09T12:32:27.962Z,39.55
2022-08-09T12:33:51.195Z,40.44
2022-08-09T12:34:27.931Z,40.66
2022-08-09T12:35:27.012Z,40.68
2022-08-09T12:36:31.819Z,40.93
2022-08-09T12:37:29.257Z,41.77
2022-08-09T12:38:47.932Z,40.41
2022-08-09T12:39:27.492Z,41.13
2022-08-09T12:40:26.966Z,41.39
2022-08-09T12:41:26.855Z,43.63
2022-08-09T12:42:26.891Z,41.07
2022-08-09T12:44:06.554Z,39.85
2022-08-09T12:44:27.818Z,38.96
2022-08-09T12:45:34.266Z,39.46
2022-08-09T12:46:27.787Z,38.32
2022-08-09T12:47:26.795Z,38.48
2022-08-09T12:48:33.814Z,39.06
2022-08-09T12:49:28.288Z,40.23
2022-08-09T12:50:28.570Z,41.49
2022-08-09T12:51:52.235Z,39.74
2022-08-09T12:52:42.817Z,39.38
2022-08-09T12:53:36.671Z,38.42
2022-08-09T12:54:27.777Z,38.31
2022-08-09T12:56:14.243Z,38.36
2022-08-09T12:56:34.905Z,36.65
2022-08-09T12:57:27.647Z,41.61
2022-08-09T12:58:28.598Z,43.23
2022-08-09T12:59:58.014Z,43.90